Latest Coastal Weather Observations for Rosslyn Bay Harbour

IDQ60701

Issued at 3:35 am EST Sunday 26 October 2014 (issued every 10 minutes, with the page automatically refreshed every 10 minutes)

About coastal observations | Map of coastal stations | Coastal observations for QLD | Marine services | Other Formats
Station Details ID: 033208 Name: ROSSLYN BAY NTC AWS Lat: -23.16 Lon: 150.79 Height: 0.0 m
Data from the previous 72 hours. | See also: Recent months for locations in Queensland
Date/Time
EST
Temp

°C
Wind Pressure Rain
since 9am
mm
Weather Cloud Vis
km
Sea
Height
m
Swell
Dir
 
Speed
knots
Gust
knots
hPa Trend Height
m
Period
s
Dir
26/03:30am 20.2 WSW 1 2 1016.8 - - - - - - - - -
26/03:00am 19.9 SW 2 3 1016.7 - - - - - - - - -
26/02:30am 20.2 W 2 3 1016.6 - - - - - - - - -
26/02:00am 20.7 W 2 3 1016.8 - - - - - - - - -
26/01:30am 20.9 WNW 2 3 1017.0 - - - - - - - - -
26/01:00am 21.6 N 5 7 1017.4 - - - - - - - - -
26/12:30am 21.7 N 5 7 1017.7 - - - - - - - - -
26/12:00am 21.7 N 5 7 1017.9 - - - - - - - - -
 
Date/Time
EST
Temp

°C
Wind Pressure Rain
since 9am
mm
Weather Cloud Vis
km
Sea
Height
m
Swell
Dir
 
Speed
knots
Gust
knots
hPa Trend Height
m
Period
s
Dir
25/11:30pm 21.8 N 5 7 1018.1 - - - - - - - - -
25/11:00pm 22.2 N 5 9 1018.5 - - - - - - - - -
25/10:30pm 22.8 NNE 10 13 1018.7 - - - - - - - - -
25/10:00pm 22.8 NNE 9 12 1018.8 - - - - - - - - -
25/09:30pm 22.8 NNE 10 13 1018.9 - - - - - - - - -
25/09:00pm 22.8 NNE 9 13 1018.9 - - - - - - - - -
25/08:30pm 22.8 NNE 9 13 1018.8 - - - - - - - - -
25/08:00pm 22.8 NE 8 12 1018.5 - - - - - - - - -
25/07:30pm 22.8 NE 8 12 1018.3 - - - - - - - - -
25/07:00pm 22.9 NE 8 13 1017.9 - - - - - - - - -
25/06:30pm 22.9 NE 9 13 1017.6 - - - - - - - - -
25/06:00pm 22.8 NE 9 13 1017.4 - - - - - - - - -
25/05:30pm 23.0 NE 9 13 1017.1 - - - - - - - - -
25/05:00pm 23.0 ENE 10 14 1016.8 - - - - - - - - -
25/04:30pm 23.2 ENE 8 12 1016.9 - - - - - - - - -
25/04:00pm 23.2 ENE 8 12 1017.1 - - - - - - - - -
25/03:30pm 24.0 ENE 6 13 1017.0 - - - - - - - - -
25/03:00pm 23.5 ENE 9 13 1016.9 - - - - - - - - -
25/02:30pm 23.4 ENE 8 14 1017.3 - - - - - - - - -
25/02:00pm 23.2 ENE 9 12 1017.6 - - - - - - - - -
25/01:30pm 24.3 ENE 7 12 1017.8 - - - - - - - - -
25/01:00pm 24.4 NE 4 8 1018.3 - - - - - - - - -
25/12:30pm 23.9 NE 5 9 1018.8 - - - - - - - - -
25/12:00pm 23.8 NNE 3 8 1019.4 - - - - - - - - -
25/11:30am 24.1 ENE 4 10 1019.8 - - - - - - - - -
25/11:00am 23.6 ENE 5 9 1020.3 - - - - - - - - -
25/10:30am 24.0 NE 4 8 1020.8 - - - - - - - - -
25/10:00am 22.9 ENE 5 7 1021.2 - - - - - - - - -
25/09:30am 23.3 ENE 3 5 1021.5 - - - - - - - - -
25/09:00am 23.2 ENE 4 7 1021.4 - - - - - - - - -
25/08:30am 23.2 ENE 4 7 1021.3 - - - - - - - - -
25/08:00am 23.0 ENE 5 7 1021.1 - - - - - - - - -
25/07:30am 22.8 ENE 3 7 1020.8 - - - - - - - - -
25/07:00am 22.8 ENE 4 7 1020.6 - - - - - - - - -
25/06:30am 22.3 ENE 6 9 1020.1 - - - - - - - - -
25/06:00am 22.2 ENE 7 11 1019.6 - - - - - - - - -
25/05:30am 22.1 ENE 5 10 1019.4 - - - - - - - - -
25/05:00am 22.1 ENE 5 11 1019.1 - - - - - - - - -
25/04:30am 22.2 ENE 6 11 1019.1 - - - - - - - - -
25/04:00am 22.1 ENE 4 9 1019.1 - - - - - - - - -
25/03:30am 22.1 ENE 6 11 1019.0 - - - - - - - - -
25/03:00am 22.1 E 3 9 1019.0 - - - - - - - - -
25/02:30am 22.3 E 4 10 1019.1 - - - - - - - - -
25/02:00am 22.1 ESE 2 7 1019.1 - - - - - - - - -
25/01:30am 22.3 E 4 11 1019.6 - - - - - - - - -
25/01:00am 22.2 E 3 9 1020.0 - - - - - - - - -
25/12:30am 22.3 SE 2 6 1020.4 - - - - - - - - -
25/12:00am 22.3 E 4 10 1020.7 - - - - - - - - -
 
Date/Time
EST
Temp

°C
Wind Pressure Rain
since 9am
mm
Weather Cloud Vis
km
Sea
Height
m
Swell
Dir
 
Speed
knots
Gust
knots
hPa Trend Height
m
Period
s
Dir
24/11:30pm 22.3 E 4 9 1020.7 - - - - - - - - -
24/11:00pm 22.3 E 4 11 1020.7 - - - - - - - - -
24/10:30pm 22.3 SE 3 9 1021.3 - - - - - - - - -
24/10:00pm 22.3 E 3 10 1021.4 - - - - - - - - -
24/09:30pm 22.3 E 4 9 1021.3 - - - - - - - - -
24/09:00pm 22.5 ENE 4 8 1021.1 - - - - - - - - -
24/08:30pm 22.3 WSW 3 7 1020.9 - - - - - - - - -
24/08:00pm 22.3 ESE 3 10 1020.7 - - - - - - - - -
24/07:30pm 22.3 ENE 3 10 1020.3 - - - - - - - - -
24/07:00pm 22.3 SW 3 7 1019.9 - - - - - - - - -
24/06:30pm 22.6 WSW 3 6 1019.4 - - - - - - - - -
24/06:00pm 22.4 W 3 7 1019.1 - - - - - - - - -
24/05:30pm 22.7 SSW 3 10 1018.8 - - - - - - - - -
24/05:00pm 22.8 SW 3 9 1018.5 - - - - - - - - -
24/04:30pm 23.2 WSW 3 10 1018.4 - - - - - - - - -
24/04:00pm 23.1 WSW 4 9 1018.5 - - - - - - - - -
24/03:30pm 23.4 SSW 4 8 1018.8 - - - - - - - - -
24/03:00pm 23.1 WSW 4 10 1019.0 - - - - - - - - -
24/02:30pm 23.7 W 3 6 1019.3 - - - - - - - - -
24/02:00pm 23.6 SW 3 7 1019.7 - - - - - - - - -
24/01:30pm 22.9 WSW 3 8 1019.9 - - - - - - - - -
24/01:00pm 23.7 S 2 6 1020.3 - - - - - - - - -
24/12:30pm 23.0 S 4 10 1020.7 - - - - - - - - -
24/12:00pm 23.6 S 3 9 1021.0 - - - - - - - - -
24/11:30am 23.3 S 3 8 1021.3 - - - - - - - - -
24/11:00am 22.4 S 6 11 1021.4 - - - - - - - - -
24/10:30am 22.7 S 5 10 1021.4 - - - - - - - - -
24/10:00am 22.3 S 7 11 1021.5 - - - - - - - - -
24/09:30am 22.4 S 7 11 1021.5 - - - - - - - - -
24/09:00am 22.8 S 4 8 1021.4 - - - - - - - - -
24/08:30am 22.7 SSW 2 6 1021.3 - - - - - - - - -
24/08:00am 21.5 S 2 5 1021.0 - - - - - - - - -
24/07:30am 21.0 SSW 3 5 1020.7 - - - - - - - - -
24/07:00am 20.0 S 4 5 1020.7 - - - - - - - - -
24/06:30am 18.8 S 4 6 1020.7 - - - - - - - - -
24/06:00am 19.0 S 4 7 1020.3 - - - - - - - - -
24/05:30am 21.3 SSW 2 5 1019.8 - - - - - - - - -
24/05:00am 21.3 SSW 2 5 1019.5 - - - - - - - - -
24/04:30am 21.4 SW 2 5 1019.1 - - - - - - - - -
24/04:00am 21.4 SSW 2 4 1019.1 - - - - - - - - -
24/03:30am 21.4 SSW 2 6 1018.9 - - - - - - - - -
24/03:00am 21.4 S 3 8 1019.0 - - - - - - - - -
24/02:30am 21.5 SW 3 6 1018.9 - - - - - - - - -
24/02:00am 21.4 WSW 2 5 1019.1 - - - - - - - - -
24/01:30am 21.5 S 3 6 1019.9 - - - - - - - - -
24/01:00am 21.6 WSW 2 5 1020.1 - - - - - - - - -
24/12:30am 21.9 E 3 7 1020.2 - - - - - - - - -
24/12:00am 21.9 ESE 2 7 1020.4 - - - - - - - - -
 
Date/Time
EST
Temp

°C
Wind Pressure Rain
since 9am
mm
Weather Cloud Vis
km
Sea
Height
m
Swell
Dir
 
Speed
knots
Gust
knots
hPa Trend Height
m
Period
s
Dir
23/11:30pm 22.0 ENE 3 7 1020.6 - - - - - - - - -
23/11:00pm 22.0 ESE 2 7 1020.7 - - - - - - - - -
23/10:30pm 22.0 ENE 3 8 1020.9 - - - - - - - - -
23/10:00pm 22.1 ENE 4 9 1021.0 - - - - - - - - -
23/09:30pm 22.3 E 3 11 1020.7 - - - - - - - - -
23/09:00pm 22.1 E 3 10 1020.5 - - - - - - - - -
23/08:30pm 22.1 NE 3 9 1020.1 - - - - - - - - -
23/08:00pm 22.1 ENE 4 9 1019.7 - - - - - - - - -
23/07:30pm 22.2 E 3 11 1019.2 - - - - - - - - -
23/07:00pm 22.1 ESE 3 13 1019.0 - - - - - - - - -
23/06:30pm 22.3 E 4 10 1018.5 - - - - - - - - -
23/06:00pm 22.4 E 4 12 1018.3 - - - - - - - - -
23/05:30pm 22.7 E 5 11 1018.2 - - - - - - - - -
23/05:00pm 22.9 ENE 4 11 1018.2 - - - - - - - - -
23/04:30pm 23.0 E 3 10 1017.8 - - - - - - - - -
23/04:00pm 23.2 E 2 8 1017.7 - - - - - - - - -
23/03:30pm 23.0 E 5 13 1017.6 - - - - - - - - -
23/03:00pm 22.9 E 3 12 1017.6 - - - - - - - - -
23/02:30pm 22.8 SW 5 11 1018.1 - - - - - - - - -
23/02:00pm 23.0 S 7 12 1018.5 - - - - - - - - -
23/01:30pm 23.2 S 4 9 1018.5 - - - - - - - - -
23/01:00pm 23.2 S 4 9 1018.8 - - - - - - - - -
23/12:30pm 23.1 S 4 8 1019.2 - - - - - - - - -
23/12:00pm 22.9 S 4 9 1019.6 - - - - - - - - -
23/11:30am 22.8 S 6 11 1020.0 - - - - - - - - -
23/11:00am 22.1 S 8 12 1020.3 - - - - - - - - -
23/10:30am 22.1 S 7 13 1020.7 - - - - - - - - -
23/10:00am 22.0 S 7 15 1021.1 - - - - - - - - -
23/09:30am 21.6 S 7 14 1021.2 - - - - - - - - -
23/09:00am 21.6 S 6 13 1021.2 - - - - - - - - -
23/08:30am 21.3 S 6 14 1021.3 - - - - - - - - -
23/08:00am 20.8 S 7 13 1021.3 - - - - - - - - -
23/07:30am 20.8 S 6 13 1021.1 - - - - - - - - -
23/07:00am 20.1 S 5 10 1021.0 - - - - - - - - -
23/06:30am 19.4 SSW 6 11 1020.8 - - - - - - - - -
23/06:00am 18.9 SSW 5 9 1020.6 - - - - - - - - -
23/05:30am 18.9 SSW 5 8 1020.3 - - - - - - - - -
23/05:00am 20.6 S 8 13 1020.3 - - - - - - - - -
23/04:30am 21.3 S 5 9 1019.8 - - - - - - - - -
23/04:00am 21.4 S 5 10 1019.7 - - - - - - - - -

Other Formats:

Comma delimited format used in spreadsheet applications
http://www.bom.gov.au/fwo/IDQ60701/IDQ60701.95298.axf

JavaScript Object Notation format (JSON) in row-major order
http://www.bom.gov.au/fwo/IDQ60701/IDQ60701.95298.json